sensor_id;sensor_type;location;lat;lon;timestamp;pressure;altitude;pressure_sealevel;temperature;humidity
36234;BME280;43467;50.890;5.982;2023-10-09T00:01:03;100706.69;;;18.68;72.73
36234;BME280;43467;50.890;5.982;2023-10-09T00:03:47;100710.47;;;18.66;72.96
36234;BME280;43467;50.890;5.982;2023-10-09T00:06:17;100705.72;;;18.69;72.79
36234;BME280;43467;50.890;5.982;2023-10-09T00:08:49;100710.56;;;18.64;73.28
36234;BME280;43467;50.890;5.982;2023-10-09T00:11:19;100705.53;;;18.60;72.94
36234;BME280;43467;50.890;5.982;2023-10-09T00:13:46;100702.84;;;18.60;73.00
36234;BME280;43467;50.890;5.982;2023-10-09T00:16:20;100701.97;;;18.59;73.13
36234;BME280;43467;50.890;5.982;2023-10-09T00:19:03;100692.44;;;18.55;73.05
36234;BME280;43467;50.890;5.982;2023-10-09T00:21:44;100686.13;;;18.56;73.21
36234;BME280;43467;50.890;5.982;2023-10-09T00:24:10;100693.19;;;18.57;73.28
36234;BME280;43467;50.890;5.982;2023-10-09T00:26:44;100680.31;;;18.49;73.53
36234;BME280;43467;50.890;5.982;2023-10-09T00:29:14;100683.72;;;18.51;73.36
36234;BME280;43467;50.890;5.982;2023-10-09T00:31:53;100686.41;;;18.51;73.48
36234;BME280;43467;50.890;5.982;2023-10-09T00:34:57;100685.22;;;18.43;73.94
36234;BME280;43467;50.890;5.982;2023-10-09T00:37:25;100693.28;;;18.43;73.95
36234;BME280;43467;50.890;5.982;2023-10-09T00:39:55;100678.38;;;18.39;74.12
36234;BME280;43467;50.890;5.982;2023-10-09T00:42:24;100676.69;;;18.38;74.32
36234;BME280;43467;50.890;5.982;2023-10-09T00:45:01;100675.81;;;18.37;74.57
36234;BME280;43467;50.890;5.982;2023-10-09T00:47:34;100669.81;;;18.34;74.42
36234;BME280;43467;50.890;5.982;2023-10-09T00:50:05;100667.22;;;18.32;74.44
36234;BME280;43467;50.890;5.982;2023-10-09T00:52:42;100668.19;;;18.31;74.48
36234;BME280;43467;50.890;5.982;2023-10-09T00:55:15;100654.16;;;18.28;74.82
36234;BME280;43467;50.890;5.982;2023-10-09T00:57:48;100665.28;;;18.34;74.89
36234;BME280;43467;50.890;5.982;2023-10-09T01:00:19;100674.31;;;18.33;75.08
36234;BME280;43467;50.890;5.982;2023-10-09T01:03:12;100667.22;;;18.32;75.06
36234;BME280;43467;50.890;5.982;2023-10-09T01:05:56;100665.41;;;18.33;75.12
36234;BME280;43467;50.890;5.982;2023-10-09T01:08:34;100647.94;;;18.27;75.14
36234;BME280;43467;50.890;5.982;2023-10-09T01:11:05;100636.81;;;18.21;74.79
36234;BME280;43467;50.890;5.982;2023-10-09T01:13:39;100656.91;;;18.39;74.90
36234;BME280;43467;50.890;5.982;2023-10-09T01:16:19;100642.34;;;18.30;74.51
36234;BME280;43467;50.890;5.982;2023-10-09T01:21:18;100639.03;;;18.27;75.02
36234;BME280;43467;50.890;5.982;2023-10-09T01:23:49;100613.63;;;18.20;74.67
36234;BME280;43467;50.890;5.982;2023-10-09T01:26:33;100640.84;;;18.39;74.50
36234;BME280;43467;50.890;5.982;2023-10-09T01:29:19;100610.41;;;18.15;74.54
36234;BME280;43467;50.890;5.982;2023-10-09T01:34:30;100647.69;;;18.43;74.47
36234;BME280;43467;50.890;5.982;2023-10-09T01:37:19;100620.41;;;18.25;74.98
36234;BME280;43467;50.890;5.982;2023-10-09T01:39:55;100624.34;;;18.32;74.73
36234;BME280;43467;50.890;5.982;2023-10-09T01:42:44;100641.47;;;18.42;74.90
36234;BME280;43467;50.890;5.982;2023-10-09T01:45:12;100641.38;;;18.44;75.12
36234;BME280;43467;50.890;5.982;2023-10-09T01:47:41;100575.41;;;18.05;74.64
36234;BME280;43467;50.890;5.982;2023-10-09T01:50:11;100640.28;;;18.46;74.92
36234;BME280;43467;50.890;5.982;2023-10-09T01:52:44;100626.78;;;18.48;74.54
36234;BME280;43467;50.890;5.982;2023-10-09T01:55:10;100579.34;;;18.12;75.10
36234;BME280;43467;50.890;5.982;2023-10-09T01:57:40;100643.50;;;18.39;75.14
36234;BME280;43467;50.890;5.982;2023-10-09T02:00:10;100661.88;;;18.45;75.04
36234;BME280;43467;50.890;5.982;2023-10-09T02:02:41;100609.78;;;18.24;75.32
36234;BME280;43467;50.890;5.982;2023-10-09T02:05:10;100635.16;;;18.43;75.13
36234;BME280;43467;50.890;5.982;2023-10-09T02:07:38;100626.94;;;18.34;75.31
36234;BME280;43467;50.890;5.982;2023-10-09T02:10:11;100613.28;;;18.37;75.55
36234;BME280;43467;50.890;5.982;2023-10-09T02:13:04;100620.03;;;18.42;75.53
36234;BME280;43467;50.890;5.982;2023-10-09T02:15:39;100622.84;;;18.41;75.66
36234;BME280;43467;50.890;5.982;2023-10-09T02:18:11;100636.34;;;18.39;75.49
36234;BME280;43467;50.890;5.982;2023-10-09T02:20:45;100638.69;;;18.44;75.48
36234;BME280;43467;50.890;5.982;2023-10-09T02:23:30;100642.88;;;18.48;75.32
36234;BME280;43467;50.890;5.982;2023-10-09T02:26:07;100619.41;;;18.26;75.55
36234;BME280;43467;50.890;5.982;2023-10-09T02:28:33;100648.78;;;18.40;75.06
36234;BME280;43467;50.890;5.982;2023-10-09T02:31:00;100643.50;;;18.39;75.10
36234;BME280;43467;50.890;5.982;2023-10-09T02:33:28;100651.13;;;18.45;75.02
36234;BME280;43467;50.890;5.982;2023-10-09T02:35:54;100654.88;;;18.42;75.12
36234;BME280;43467;50.890;5.982;2023-10-09T02:38:20;100653.28;;;18.40;74.91
36234;BME280;43467;50.890;5.982;2023-10-09T02:40:52;100646.44;;;18.36;75.52
36234;BME280;43467;50.890;5.982;2023-10-09T02:43:34;100629.72;;;18.32;75.46
36234;BME280;43467;50.890;5.982;2023-10-09T02:46:06;100643.66;;;18.37;75.57
36234;BME280;43467;50.890;5.982;2023-10-09T02:48:49;100632.81;;;18.26;75.27
36234;BME280;43467;50.890;5.982;2023-10-09T02:51:22;100636.97;;;18.30;75.54
36234;BME280;43467;50.890;5.982;2023-10-09T02:53:53;100639.47;;;18.33;75.70
36234;BME280;43467;50.890;5.982;2023-10-09T02:56:20;100623.56;;;18.30;75.39
36234;BME280;43467;50.890;5.982;2023-10-09T02:59:05;100630.03;;;18.28;75.34
36234;BME280;43467;50.890;5.982;2023-10-09T03:01:34;100626.31;;;18.18;75.14
36234;BME280;43467;50.890;5.982;2023-10-09T03:04:01;100604.66;;;18.08;75.11
36234;BME280;43467;50.890;5.982;2023-10-09T03:06:27;100647.19;;;18.25;75.18
36234;BME280;43467;50.890;5.982;2023-10-09T03:08:57;100639.47;;;18.21;75.15
36234;BME280;43467;50.890;5.982;2023-10-09T03:11:22;100646.66;;;18.20;75.05
36234;BME280;43467;50.890;5.982;2023-10-09T03:13:48;100623.09;;;18.13;74.94
36234;BME280;43467;50.890;5.982;2023-10-09T03:16:14;100621.91;;;18.17;74.84
36234;BME280;43467;50.890;5.982;2023-10-09T03:18:51;100625.44;;;18.17;74.62
36234;BME280;43467;50.890;5.982;2023-10-09T03:21:18;100610.97;;;18.07;74.72
36234;BME280;43467;50.890;5.982;2023-10-09T03:23:48;100612.22;;;18.14;74.84
36234;BME280;43467;50.890;5.982;2023-10-09T03:26:19;100615.03;;;18.13;74.74
36234;BME280;43467;50.890;5.982;2023-10-09T03:28:46;100623.50;;;18.19;74.18
36234;BME280;43467;50.890;5.982;2023-10-09T03:31:12;100591.78;;;18.00;74.05
36234;BME280;43467;50.890;5.982;2023-10-09T03:33:38;100627.13;;;18.18;74.66
36234;BME280;43467;50.890;5.982;2023-10-09T03:36:04;100621.25;;;18.13;74.77
36234;BME280;43467;50.890;5.982;2023-10-09T03:38:35;100619.00;;;18.07;74.33
36234;BME280;43467;50.890;5.982;2023-10-09T03:41:02;100611.19;;;18.04;74.46
36234;BME280;43467;50.890;5.982;2023-10-09T03:43:35;100621.78;;;18.05;74.74
36234;BME280;43467;50.890;5.982;2023-10-09T03:46:10;100626.94;;;18.08;74.82
36234;BME280;43467;50.890;5.982;2023-10-09T03:48:50;100618.13;;;18.06;74.75
36234;BME280;43467;50.890;5.982;2023-10-09T03:51:18;100626.94;;;18.08;74.81
36234;BME280;43467;50.890;5.982;2023-10-09T03:53:50;100622.44;;;18.09;74.77
36234;BME280;43467;50.890;5.982;2023-10-09T03:56:18;100611.91;;;18.06;74.85
36234;BME280;43467;50.890;5.982;2023-10-09T03:58:50;100594.16;;;17.92;74.90
36234;BME280;43467;50.890;5.982;2023-10-09T04:01:19;100614.72;;;18.04;74.87
36234;BME280;43467;50.890;5.982;2023-10-09T04:03:58;100618.59;;;18.00;75.16
36234;BME280;43467;50.890;5.982;2023-10-09T04:06:28;100615.28;;;17.97;74.92
36234;BME280;43467;50.890;5.982;2023-10-09T04:09:09;100620.50;;;17.98;75.40
36234;BME280;43467;50.890;5.982;2023-10-09T04:11:51;100623.31;;;17.97;75.02
36234;BME280;43467;50.890;5.982;2023-10-09T04:14:39;100585.56;;;17.75;75.50
36234;BME280;43467;50.890;5.982;2023-10-09T04:17:23;100610.41;;;17.89;75.20
36234;BME280;43467;50.890;5.982;2023-10-09T04:19:51;100628.97;;;17.92;75.05
36234;BME280;43467;50.890;5.982;2023-10-09T04:22:40;100625.66;;;17.89;75.38
36234;BME280;43467;50.890;5.982;2023-10-09T04:25:22;100632.84;;;17.88;75.12
36234;BME280;43467;50.890;5.982;2023-10-09T04:28:07;100640.44;;;17.94;75.37
36234;BME280;43467;50.890;5.982;2023-10-09T04:30:44;100611.50;;;17.74;75.69
36234;BME280;43467;50.890;5.982;2023-10-09T04:33:13;100634.88;;;17.85;75.76
36234;BME280;43467;50.890;5.982;2023-10-09T04:36:13;100650.09;;;17.84;76.30
36234;BME280;43467;50.890;5.982;2023-10-09T04:38:49;100615.69;;;17.78;76.20
36234;BME280;43467;50.890;5.982;2023-10-09T04:41:24;100621.59;;;17.83;76.07
36234;BME280;43467;50.890;5.982;2023-10-09T04:43:54;100612.66;;;17.70;76.41
36234;BME280;43467;50.890;5.982;2023-10-09T04:46:30;100625.09;;;17.71;76.46
36234;BME280;43467;50.890;5.982;2023-10-09T04:49:11;100578.25;;;17.51;76.11
36234;BME280;43467;50.890;5.982;2023-10-09T04:51:55;100605.09;;;17.64;76.27
36234;BME280;43467;50.890;5.982;2023-10-09T04:54:43;100625.84;;;17.73;76.28
36234;BME280;43467;50.890;5.982;2023-10-09T04:57:28;100611.28;;;17.64;75.61
36234;BME280;43467;50.890;5.982;2023-10-09T04:59:54;100614.94;;;17.76;75.73
36234;BME280;43467;50.890;5.982;2023-10-09T05:02:26;100600.47;;;17.66;75.96
36234;BME280;43467;50.890;5.982;2023-10-09T05:05:01;100607.66;;;17.78;75.90
36234;BME280;43467;50.890;5.982;2023-10-09T05:07:47;100598.09;;;17.74;75.86
36234;BME280;43467;50.890;5.982;2023-10-09T05:10:20;100588.69;;;17.69;76.13
36234;BME280;43467;50.890;5.982;2023-10-09T05:12:50;100599.50;;;17.67;76.28
36234;BME280;43467;50.890;5.982;2023-10-09T05:15:25;100598.41;;;17.70;76.35
36234;BME280;43467;50.890;5.982;2023-10-09T05:17:56;100594.16;;;17.67;76.31
36234;BME280;43467;50.890;5.982;2023-10-09T05:20:24;100586.84;;;17.69;76.20
36234;BME280;43467;50.890;5.982;2023-10-09T05:22:52;100588.69;;;17.69;76.40
36234;BME280;43467;50.890;5.982;2023-10-09T05:25:40;100585.00;;;17.57;76.67
36234;BME280;43467;50.890;5.982;2023-10-09T05:28:25;100546.97;;;17.39;76.92
36234;BME280;43467;50.890;5.982;2023-10-09T05:30:57;100579.13;;;17.52;76.82
36234;BME280;43467;50.890;5.982;2023-10-09T05:33:55;100594.97;;;17.55;76.96
36234;BME280;43467;50.890;5.982;2023-10-09T05:36:26;100595.81;;;17.55;76.80
36234;BME280;43467;50.890;5.982;2023-10-09T05:38:53;100604.81;;;17.54;77.05
36234;BME280;43467;50.890;5.982;2023-10-09T05:41:27;100608.25;;;17.56;76.92
36234;BME280;43467;50.890;5.982;2023-10-09T05:43:56;100592.56;;;17.38;77.01
36234;BME280;43467;50.890;5.982;2023-10-09T05:46:40;100607.59;;;17.53;76.92
36234;BME280;43467;50.890;5.982;2023-10-09T05:49:26;100606.84;;;17.51;76.72
36234;BME280;43467;50.890;5.982;2023-10-09T05:52:13;100597.53;;;17.56;76.47
36234;BME280;43467;50.890;5.982;2023-10-09T05:54:58;100576.41;;;17.39;76.11
36234;BME280;43467;50.890;5.982;2023-10-09T05:57:42;100610.94;;;17.56;76.05
36234;BME280;43467;50.890;5.982;2023-10-09T06:00:26;100597.22;;;17.48;75.81
36234;BME280;43467;50.890;5.982;2023-10-09T06:03:11;100604.81;;;17.54;75.66
36234;BME280;43467;50.890;5.982;2023-10-09T06:05:50;100609.97;;;17.57;75.63
36234;BME280;43467;50.890;5.982;2023-10-09T06:08:23;100610.25;;;17.53;75.80
36234;BME280;43467;50.890;5.982;2023-10-09T06:10:55;100598.81;;;17.51;75.16
36234;BME280;43467;50.890;5.982;2023-10-09T06:13:39;100615.09;;;17.48;75.52
36234;BME280;43467;50.890;5.982;2023-10-09T06:16:12;100629.78;;;17.55;75.77
36234;BME280;43467;50.890;5.982;2023-10-09T06:19:00;100610.78;;;17.45;75.81
36234;BME280;43467;50.890;5.982;2023-10-09T06:21:38;100566.84;;;17.23;75.97
36234;BME280;43467;50.890;5.982;2023-10-09T06:24:23;100584.13;;;17.44;75.62
36234;BME280;43467;50.890;5.982;2023-10-09T06:26:50;100603.94;;;17.54;75.81
36234;BME280;43467;50.890;5.982;2023-10-09T06:29:28;100595.91;;;17.54;75.79
36234;BME280;43467;50.890;5.982;2023-10-09T06:32:08;100604.63;;;17.57;75.97
36234;BME280;43467;50.890;5.982;2023-10-09T06:34:44;100596.34;;;17.48;76.15
36234;BME280;43467;50.890;5.982;2023-10-09T06:37:18;100629.28;;;17.62;76.14
36234;BME280;43467;50.890;5.982;2023-10-09T06:39:50;100620.28;;;17.37;76.42
36234;BME280;43467;50.890;5.982;2023-10-09T06:42:36;100614.63;;;17.41;75.85
36234;BME280;43467;50.890;5.982;2023-10-09T06:45:09;100653.28;;;17.64;76.05
36234;BME280;43467;50.890;5.982;2023-10-09T06:47:49;100655.59;;;17.56;76.24
36234;BME280;43467;50.890;5.982;2023-10-09T06:50:24;100616.56;;;17.39;76.16
36234;BME280;43467;50.890;5.982;2023-10-09T06:52:53;100665.50;;;17.68;76.31
36234;BME280;43467;50.890;5.982;2023-10-09T06:55:38;100667.53;;;17.64;76.25
36234;BME280;43467;50.890;5.982;2023-10-09T07:00:50;100663.00;;;17.65;76.48
36234;BME280;43467;50.890;5.982;2023-10-09T07:03:35;100677.06;;;17.69;76.35
36234;BME280;43467;50.890;5.982;2023-10-09T07:06:06;100674.28;;;17.70;76.29
36234;BME280;43467;50.890;5.982;2023-10-09T07:08:36;100681.88;;;17.63;76.45
36234;BME280;43467;50.890;5.982;2023-10-09T07:11:09;100694.75;;;17.71;76.79
36234;BME280;43467;50.890;5.982;2023-10-09T07:14:13;100657.41;;;17.55;76.50
36234;BME280;43467;50.890;5.982;2023-10-09T07:17:07;100684.25;;;17.68;76.92
36234;BME280;43467;50.890;5.982;2023-10-09T07:20:08;100687.66;;;17.70;76.60
36234;BME280;43467;50.890;5.982;2023-10-09T07:22:42;100676.25;;;17.54;76.82
36234;BME280;43467;50.890;5.982;2023-10-09T07:25:22;100675.50;;;17.52;76.97
36234;BME280;43467;50.890;5.982;2023-10-09T07:28:09;100691.50;;;17.66;77.29
36234;BME280;43467;50.890;5.982;2023-10-09T07:30:54;100681.09;;;17.61;77.10
36234;BME280;43467;50.890;5.982;2023-10-09T07:33:23;100666.69;;;17.50;77.75
36234;BME280;43467;50.890;5.982;2023-10-09T07:36:09;100686.06;;;17.68;77.32
36234;BME280;43467;50.890;5.982;2023-10-09T07:38:37;100673.28;;;17.58;77.29
36234;BME280;43467;50.890;5.982;2023-10-09T07:41:03;100686.91;;;17.68;77.03
36234;BME280;43467;50.890;5.982;2023-10-09T07:43:34;100654.53;;;17.58;76.80
36234;BME280;43467;50.890;5.982;2023-10-09T07:46:10;100644.03;;;17.55;76.66
36234;BME280;43467;50.890;5.982;2023-10-09T07:49:01;100662.50;;;17.73;76.27
36234;BME280;43467;50.890;5.982;2023-10-09T07:51:38;100650.22;;;17.56;76.66
36234;BME280;43467;50.890;5.982;2023-10-09T07:54:04;100684.25;;;17.68;76.68
36234;BME280;43467;50.890;5.982;2023-10-09T07:56:38;100687.00;;;17.67;77.11
36234;BME280;43467;50.890;5.982;2023-10-09T07:59:07;100689.94;;;17.76;76.73
36234;BME280;43467;50.890;5.982;2023-10-09T08:01:44;100635.00;;;17.44;76.69
36234;BME280;43467;50.890;5.982;2023-10-09T08:04:24;100676.09;;;17.70;76.59
36234;BME280;43467;50.890;5.982;2023-10-09T08:07:14;100681.69;;;17.79;76.63
36234;BME280;43467;50.890;5.982;2023-10-09T08:09:54;100672.56;;;17.82;76.17
36234;BME280;43467;50.890;5.982;2023-10-09T08:12:39;100679.13;;;17.90;75.92
36234;BME280;43467;50.890;5.982;2023-10-09T08:15:06;100673.44;;;17.95;76.03
36234;BME280;43467;50.890;5.982;2023-10-09T08:17:58;100677.09;;;17.94;76.18
36234;BME280;43467;50.890;5.982;2023-10-09T08:20:30;100664.44;;;17.83;75.78
36234;BME280;43467;50.890;5.982;2023-10-09T08:23:14;100678.72;;;17.96;75.58
36234;BME280;43467;50.890;5.982;2023-10-09T08:26:04;100685.13;;;18.06;75.66
36234;BME280;43467;50.890;5.982;2023-10-09T08:28:42;100678.19;;;18.04;75.34
36234;BME280;43467;50.890;5.982;2023-10-09T08:31:10;100675.91;;;17.98;75.64
36234;BME280;43467;50.890;5.982;2023-10-09T08:34:02;100674.84;;;18.00;75.59
36234;BME280;43467;50.890;5.982;2023-10-09T08:36:29;100660.59;;;18.00;75.48
36234;BME280;43467;50.890;5.982;2023-10-09T08:39:04;100647.19;;;18.00;75.37
36234;BME280;43467;50.890;5.982;2023-10-09T08:41:42;100648.06;;;18.00;75.47
36234;BME280;43467;50.890;5.982;2023-10-09T08:44:12;100638.94;;;17.90;75.26
36234;BME280;43467;50.890;5.982;2023-10-09T08:46:40;100659.97;;;18.09;74.96
36234;BME280;43467;50.890;5.982;2023-10-09T08:49:08;100670.88;;;18.19;74.70
36234;BME280;43467;50.890;5.982;2023-10-09T08:51:35;100668.19;;;18.19;74.77
36234;BME280;43467;50.890;5.982;2023-10-09T08:54:01;100655.97;;;18.27;74.64
36234;BME280;43467;50.890;5.982;2023-10-09T08:56:26;100631.84;;;18.15;74.51
36234;BME280;43467;50.890;5.982;2023-10-09T08:59:00;100654.78;;;18.31;74.23
36234;BME280;43467;50.890;5.982;2023-10-09T09:01:27;100665.41;;;18.33;74.14
36234;BME280;43467;50.890;5.982;2023-10-09T09:03:57;100684.63;;;18.52;73.73
36234;BME280;43467;50.890;5.982;2023-10-09T09:06:22;100655.09;;;18.39;73.02
36234;BME280;43467;50.890;5.982;2023-10-09T09:08:49;100666.38;;;18.57;73.01
36234;BME280;43467;50.890;5.982;2023-10-09T09:11:20;100677.34;;;18.54;72.67
36234;BME280;43467;50.890;5.982;2023-10-09T09:16:29;100668.03;;;18.71;72.33
36234;BME280;43467;50.890;5.982;2023-10-09T09:19:03;100665.78;;;18.77;72.10
36234;BME280;43467;50.890;5.982;2023-10-09T09:21:49;100634.72;;;18.62;71.22
36234;BME280;43467;50.890;5.982;2023-10-09T09:24:20;100657.38;;;18.94;71.27
36234;BME280;43467;50.890;5.982;2023-10-09T09:26:53;100663.59;;;18.95;70.67
36234;BME280;43467;50.890;5.982;2023-10-09T09:32:03;100646.16;;;19.00;70.59
36234;BME280;43467;50.890;5.982;2023-10-09T09:34:51;100650.25;;;19.06;69.40
36234;BME280;43467;50.890;5.982;2023-10-09T09:37:24;100670.31;;;19.24;69.50
36234;BME280;43467;50.890;5.982;2023-10-09T09:39:57;100662.50;;;19.21;68.75
36234;BME280;43467;50.890;5.982;2023-10-09T09:42:23;100657.91;;;19.23;68.04
36234;BME280;43467;50.890;5.982;2023-10-09T09:44:53;100663.69;;;19.41;67.67
36234;BME280;43467;50.890;5.982;2023-10-09T09:47:19;100634.81;;;19.21;67.03
36234;BME280;43467;50.890;5.982;2023-10-09T09:49:56;100648.94;;;19.35;67.26
36234;BME280;43467;50.890;5.982;2023-10-09T09:52:38;100667.72;;;19.59;66.23
36234;BME280;43467;50.890;5.982;2023-10-09T09:55:06;100673.13;;;19.70;66.27
36234;BME280;43467;50.890;5.982;2023-10-09T09:57:40;100635.50;;;19.59;65.00
36234;BME280;43467;50.890;5.982;2023-10-09T10:00:12;100633.94;;;19.68;65.24
36234;BME280;43467;50.890;5.982;2023-10-09T10:02:57;100625.53;;;19.72;64.52
36234;BME280;43467;50.890;5.982;2023-10-09T10:05:25;100598.88;;;19.69;64.20
36234;BME280;43467;50.890;5.982;2023-10-09T10:07:57;100625.19;;;19.88;63.87
36234;BME280;43467;50.890;5.982;2023-10-09T10:10:37;100634.72;;;20.03;63.20
36234;BME280;43467;50.890;5.982;2023-10-09T10:13:05;100617.72;;;19.91;63.17
36234;BME280;43467;50.890;5.982;2023-10-09T10:18:56;100640.72;;;20.18;62.18
36234;BME280;43467;50.890;5.982;2023-10-09T10:21:40;100636.69;;;20.23;61.56
36234;BME280;43467;50.890;5.982;2023-10-09T10:29:35;100631.06;;;20.26;59.68
36234;BME280;43467;50.890;5.982;2023-10-09T10:32:04;100628.25;;;20.28;59.56
36234;BME280;43467;50.890;5.982;2023-10-09T10:34:52;100621.16;;;20.27;59.97
36234;BME280;43467;50.890;5.982;2023-10-09T10:37:33;100625.34;;;20.31;59.86
36234;BME280;43467;50.890;5.982;2023-10-09T10:40:06;100621.81;;;20.30;60.53
36234;BME280;43467;50.890;5.982;2023-10-09T10:42:52;100599.03;;;20.23;60.20
36234;BME280;43467;50.890;5.982;2023-10-09T10:45:38;100599.44;;;20.30;60.94
36234;BME280;43467;50.890;5.982;2023-10-09T10:48:09;100620.72;;;20.33;60.58
36234;BME280;43467;50.890;5.982;2023-10-09T10:51:04;100629.03;;;20.41;60.05
36234;BME280;43467;50.890;5.982;2023-10-09T10:53:30;100630.72;;;20.42;60.01
36234;BME280;43467;50.890;5.982;2023-10-09T10:56:13;100590.25;;;20.21;60.04
36234;BME280;43467;50.890;5.982;2023-10-09T10:58:42;100618.75;;;20.35;60.35
36234;BME280;43467;50.890;5.982;2023-10-09T11:01:32;100597.59;;;20.30;60.02
36234;BME280;43467;50.890;5.982;2023-10-09T11:04:21;100639.53;;;20.55;60.45
36234;BME280;43467;50.890;5.982;2023-10-09T11:06:56;100638.06;;;20.51;60.20
36234;BME280;43467;50.890;5.982;2023-10-09T11:09:54;100630.75;;;20.53;60.37
36234;BME280;43467;50.890;5.982;2023-10-09T11:15:09;100637.44;;;20.59;59.84
36234;BME280;43467;50.890;5.982;2023-10-09T11:20:40;100654.56;;;20.69;60.13
36234;BME280;43467;50.890;5.982;2023-10-09T11:23:19;100657.75;;;20.74;60.02
36234;BME280;43467;50.890;5.982;2023-10-09T11:25:55;100670.31;;;20.84;60.94
36234;BME280;43467;50.890;5.982;2023-10-09T11:28:33;100638.06;;;20.73;60.51
36234;BME280;43467;50.890;5.982;2023-10-09T11:31:14;100653.69;;;20.79;60.53
36234;BME280;43467;50.890;5.982;2023-10-09T11:33:51;100653.69;;;20.91;60.29
36234;BME280;43467;50.890;5.982;2023-10-09T11:36:18;100633.59;;;20.83;60.45
36234;BME280;43467;50.890;5.982;2023-10-09T11:39:00;100666.34;;;21.11;60.49
36234;BME280;43467;50.890;5.982;2023-10-09T11:41:45;100663.91;;;21.08;60.27
36234;BME280;43467;50.890;5.982;2023-10-09T11:44:15;100659.63;;;21.16;59.85
36234;BME280;43467;50.890;5.982;2023-10-09T11:47:00;100657.31;;;21.12;57.94
36234;BME280;43467;50.890;5.982;2023-10-09T11:49:56;100654.25;;;21.16;57.68
36234;BME280;43467;50.890;5.982;2023-10-09T11:52:31;100646.03;;;21.18;57.21
36234;BME280;43467;50.890;5.982;2023-10-09T11:55:04;100656.19;;;21.25;57.39
36234;BME280;43467;50.890;5.982;2023-10-09T11:57:40;100661.19;;;21.30;55.85
36234;BME280;43467;50.890;5.982;2023-10-09T12:00:06;100651.66;;;21.26;56.78
36234;BME280;43467;50.890;5.982;2023-10-09T12:02:50;100644.88;;;21.31;56.72
36234;BME280;43467;50.890;5.982;2023-10-09T12:05:15;100648.31;;;21.33;55.77
36234;BME280;43467;50.890;5.982;2023-10-09T12:07:47;100631.81;;;21.27;54.99
36234;BME280;43467;50.890;5.982;2023-10-09T12:10:21;100633.72;;;21.36;55.20
36234;BME280;43467;50.890;5.982;2023-10-09T12:12:53;100613.47;;;21.21;54.69
36234;BME280;43467;50.890;5.982;2023-10-09T12:15:19;100623.81;;;21.37;54.97
36234;BME280;43467;50.890;5.982;2023-10-09T12:17:46;100628.22;;;21.38;55.09
36234;BME280;43467;50.890;5.982;2023-10-09T12:20:14;100638.28;;;21.36;55.54
36234;BME280;43467;50.890;5.982;2023-10-09T12:22:59;100617.63;;;21.25;54.83
36234;BME280;43467;50.890;5.982;2023-10-09T12:25:25;100651.09;;;21.43;53.97
36234;BME280;43467;50.890;5.982;2023-10-09T12:27:51;100644.47;;;21.47;54.34
36234;BME280;43467;50.890;5.982;2023-10-09T12:30:23;100629.06;;;21.38;53.88
36234;BME280;43467;50.890;5.982;2023-10-09T12:32:56;100646.31;;;21.47;54.53
36234;BME280;43467;50.890;5.982;2023-10-09T12:35:26;100644.97;;;21.41;54.71
36234;BME280;43467;50.890;5.982;2023-10-09T12:37:52;100652.34;;;21.39;55.24
36234;BME280;43467;50.890;5.982;2023-10-09T12:40:21;100640.34;;;21.32;55.24
36234;BME280;43467;50.890;5.982;2023-10-09T12:42:52;100639.97;;;21.37;55.73
36234;BME280;43467;50.890;5.982;2023-10-09T12:45:21;100597.19;;;21.11;55.87
36234;BME280;43467;50.890;5.982;2023-10-09T12:47:58;100598.31;;;21.09;55.90
36234;BME280;43467;50.890;5.982;2023-10-09T12:50:34;100618.78;;;21.32;56.19
36234;BME280;43467;50.890;5.982;2023-10-09T12:53:00;100626.00;;;21.31;56.66
36234;BME280;43467;50.890;5.982;2023-10-09T12:55:35;100586.06;;;21.05;56.62
36234;BME280;43467;50.890;5.982;2023-10-09T12:58:01;100632.19;;;21.22;56.97
36234;BME280;43467;50.890;5.982;2023-10-09T13:00:37;100639.25;;;21.35;57.71
36234;BME280;43467;50.890;5.982;2023-10-09T13:03:07;100624.44;;;21.29;57.50
36234;BME280;43467;50.890;5.982;2023-10-09T13:05:49;100601.44;;;21.25;57.67
36234;BME280;43467;50.890;5.982;2023-10-09T13:08:21;100623.47;;;21.30;57.64
36234;BME280;43467;50.890;5.982;2023-10-09T13:10:48;100633.00;;;21.34;57.98
36234;BME280;43467;50.890;5.982;2023-10-09T13:13:24;100646.94;;;21.39;58.35
36234;BME280;43467;50.890;5.982;2023-10-09T13:15:52;100640.59;;;21.29;58.63
36234;BME280;43467;50.890;5.982;2023-10-09T13:18:18;100655.16;;;21.38;59.05
36234;BME280;43467;50.890;5.982;2023-10-09T13:20:44;100650.47;;;21.19;58.59
36234;BME280;43467;50.890;5.982;2023-10-09T13:23:10;100654.47;;;21.24;58.63
36234;BME280;43467;50.890;5.982;2023-10-09T13:25:40;100658.97;;;21.24;58.50
36234;BME280;43467;50.890;5.982;2023-10-09T13:28:05;100639.19;;;21.14;58.48
36234;BME280;43467;50.890;5.982;2023-10-09T13:30:32;100648.09;;;21.25;58.38
36234;BME280;43467;50.890;5.982;2023-10-09T13:33:04;100647.22;;;21.25;58.91
36234;BME280;43467;50.890;5.982;2023-10-09T13:35:30;100650.41;;;21.30;58.46
36234;BME280;43467;50.890;5.982;2023-10-09T13:38:03;100656.56;;;21.21;58.46
36234;BME280;43467;50.890;5.982;2023-10-09T13:40:33;100651.16;;;21.21;58.72
36234;BME280;43467;50.890;5.982;2023-10-09T13:43:00;100655.19;;;21.26;58.48
36234;BME280;43467;50.890;5.982;2023-10-09T13:45:27;100643.84;;;21.12;58.58
36234;BME280;43467;50.890;5.982;2023-10-09T13:48:01;100609.06;;;21.09;58.83
36234;BME280;43467;50.890;5.982;2023-10-09T13:50:28;100640.13;;;21.24;59.17
36234;BME280;43467;50.890;5.982;2023-10-09T13:53:07;100634.91;;;21.22;59.22
36234;BME280;43467;50.890;5.982;2023-10-09T13:55:38;100601.84;;;21.09;58.87
36234;BME280;43467;50.890;5.982;2023-10-09T13:58:09;100591.94;;;21.10;58.65